createdAt,value
2019-03-05T00:06:19.886Z,8.56
2019-03-05T00:16:25.822Z,8.13
2019-03-05T00:26:36.225Z,8.31
2019-03-05T00:36:46.821Z,8.25
2019-03-05T00:47:23.234Z,8.13
2019-03-05T00:58:03.032Z,8.13
2019-03-05T01:08:09.001Z,7.69
2019-03-05T01:18:14.945Z,7.62
2019-03-05T01:28:20.815Z,7.56
2019-03-05T01:38:26.979Z,7.56
2019-03-05T01:48:32.819Z,7.69
2019-03-05T01:58:38.820Z,7.62
2019-03-05T02:08:44.639Z,7.62
2019-03-05T02:18:50.592Z,7.56
2019-03-05T02:29:10.245Z,7.50
2019-03-05T02:39:35.807Z,7.44
2019-03-05T02:50:19.759Z,7.44
2019-03-05T03:00:30.302Z,7.44
2019-03-05T03:10:36.255Z,7.37
2019-03-05T03:20:42.033Z,7.44
2019-03-05T03:30:47.958Z,7.44
2019-03-05T03:40:53.760Z,7.37
2019-03-05T03:50:59.614Z,7.37
2019-03-05T04:01:07.239Z,7.12
2019-03-05T04:11:13.389Z,6.94
2019-03-05T04:21:20.176Z,6.44
2019-03-05T04:31:26.356Z,6.25
2019-03-05T04:41:32.232Z,6.19
2019-03-05T04:51:52.039Z,6.12
2019-03-05T05:01:57.979Z,6.06
2019-03-05T05:12:03.996Z,6.12
2019-03-05T05:22:09.788Z,6.12
2019-03-05T05:32:15.642Z,6.25
2019-03-05T05:42:21.598Z,6.06
2019-03-05T05:52:27.409Z,6.25
2019-03-05T06:02:33.282Z,6.06
2019-03-05T06:12:39.225Z,6.06
2019-03-05T06:22:46.234Z,6.19
2019-03-05T06:32:52.112Z,6.37
2019-03-05T06:42:58.046Z,6.50
2019-03-05T06:53:04.026Z,6.62
2019-03-05T07:03:10.009Z,7.12
2019-03-05T07:13:16.031Z,7.06
2019-03-05T07:23:47.390Z,7.19
2019-03-05T07:33:53.272Z,7.56
2019-03-05T07:43:59.101Z,7.50
2019-03-05T07:54:05.056Z,7.56
2019-03-05T08:04:10.090Z,7.44
2019-03-05T08:14:41.653Z,7.69
2019-03-05T08:24:47.388Z,8.06
2019-03-05T08:34:53.257Z,7.94
2019-03-05T08:44:59.247Z,8.06
2019-03-05T08:55:07.243Z,8.38
2019-03-05T09:05:14.806Z,8.44
2019-03-05T09:15:21.096Z,8.50
2019-03-05T09:25:27.246Z,8.56
2019-03-05T09:35:33.258Z,8.25
2019-03-05T09:45:39.247Z,7.87
2019-03-05T09:55:45.101Z,7.56
2019-03-05T10:05:50.433Z,7.50
2019-03-05T10:15:56.250Z,7.56
2019-03-05T10:38:42.939Z,7.62
2019-03-05T10:48:47.215Z,7.50
2019-03-05T10:58:50.719Z,7.94
2019-03-05T11:08:54.999Z,8.56
2019-03-05T11:18:59.393Z,8.00
2019-03-05T11:29:03.807Z,7.94
2019-03-05T11:39:08.199Z,8.00
2019-03-05T11:49:14.204Z,7.94
2019-03-05T11:59:18.471Z,7.81
2019-03-05T12:09:22.845Z,7.81
2019-03-05T12:19:27.208Z,8.25
2019-03-05T12:29:31.490Z,8.25
2019-03-05T12:39:35.817Z,8.81
2019-03-05T12:49:40.066Z,8.75
2019-03-05T12:59:44.286Z,8.88
2019-03-05T13:09:47.814Z,8.94
2019-03-05T13:19:53.655Z,8.94
2019-03-05T13:29:57.907Z,9.19
2019-03-05T13:40:02.212Z,8.69
2019-03-05T13:50:08.759Z,9.00
2019-03-05T14:00:14.005Z,9.06
2019-03-05T14:10:18.320Z,9.56
2019-03-05T14:20:31.598Z,9.31
2019-03-05T14:30:29.773Z,9.44
2019-03-05T14:40:33.985Z,9.44
2019-03-05T14:50:38.393Z,9.56
2019-03-05T15:00:42.695Z,9.31
2019-03-05T15:10:47.045Z,9.06
2019-03-05T15:20:51.331Z,8.88
2019-03-05T15:30:55.689Z,7.87
2019-03-05T15:41:00.000Z,7.06
2019-03-05T15:51:04.254Z,6.69
2019-03-05T16:01:09.855Z,6.62
2019-03-05T16:11:14.551Z,6.87
2019-03-05T16:21:18.967Z,6.81
2019-03-05T16:31:24.947Z,6.69
2019-03-05T16:41:33.531Z,6.37
2019-03-05T16:51:39.533Z,6.62
2019-03-05T17:01:45.423Z,6.62
2019-03-05T17:11:55.065Z,6.56
2019-03-05T17:21:59.427Z,6.56
2019-03-05T17:32:03.805Z,6.25
2019-03-05T17:42:08.208Z,6.19
2019-03-05T17:52:12.548Z,6.12
2019-03-05T18:02:16.935Z,6.19
2019-03-05T18:12:20.739Z,6.12
2019-03-05T18:22:24.952Z,6.06
2019-03-05T18:32:29.213Z,5.87
2019-03-05T18:42:32.716Z,5.87
2019-03-05T18:52:37.016Z,5.94
2019-03-05T19:02:41.704Z,5.94
2019-03-05T19:12:46.016Z,5.87
2019-03-05T19:22:50.318Z,5.81
2019-03-05T19:32:54.679Z,5.87
2019-03-05T19:42:59.423Z,5.75
2019-03-05T19:53:04.516Z,5.81
2019-03-05T20:03:08.921Z,5.69
